Time;durP1;ratioP1;P1;durP2;ratioP2;P2;SDS_P1;SDS_P2;PMS_P1;PMS_P2;Temp;Humidity;BMP_temperature;BMP_pressure;BME280_temperature;BME280_humidity;BME280_pressure;Samples;Min_cycle;Max_cycle;Signal;HPM_P1;HPM_P2
2021/12/14 00:03:10;;;;;;;0.20;0.00;;;7.80;99.90;;;;;;20823492;28;20230;-65
2021/12/14 00:13:26;;;;;;;0.20;0.00;;;7.40;99.90;;;;;;20819525;28;20663;-65
2021/12/14 00:34:00;;;;;;;0.20;0.10;;;7.60;99.90;;;;;;20837475;28;20232;-66
2021/12/14 00:44:04;;;;;;;0.20;0.10;;;7.40;99.90;;;;;;20836929;28;20183;-66
2021/12/14 00:54:13;;;;;;;0.20;0.10;;;7.70;99.90;;;;;;20836495;28;20309;-66
2021/12/14 01:04:24;;;;;;;0.20;0.00;;;8.30;99.90;;;;;;20836183;28;20776;-65
2021/12/14 01:14:39;;;;;;;0.20;0.10;;;8.90;99.90;;;;;;20882386;28;20626;-66
2021/12/14 01:25:03;;;;;;;0.20;0.10;;;8.70;99.90;;;;;;20916010;28;20212;-67
2021/12/14 01:35:13;;;;;;;0.20;0.20;;;8.60;99.90;;;;;;20914298;28;20222;-65
2021/12/14 01:45:19;;;;;;;0.20;0.07;;;8.60;99.90;;;;;;20914210;28;20580;-65
2021/12/14 01:55:27;;;;;;;0.20;0.10;;;8.60;99.90;;;;;;20914534;28;20312;-67
2021/12/14 02:05:39;;;;;;;0.20;0.00;;;8.60;99.90;;;;;;20974632;23;20263;-70
2021/12/14 02:15:45;;;;;;;0.20;0.00;;;8.50;99.90;;;;;;20948886;28;20231;-69
2021/12/14 02:25:52;;;;;;;0.20;0.00;;;8.50;99.90;;;;;;20914664;28;20288;-70
2021/12/14 02:35:55;;;;;;;0.20;0.10;;;8.30;99.90;;;;;;20914189;28;20190;-70
2021/12/14 02:46:07;;;;;;;0.20;0.00;;;8.50;99.90;;;;;;20952644;28;20646;-69
2021/12/14 02:56:13;;;;;;;0.20;0.10;;;8.50;99.90;;;;;;20955432;28;20197;-69
2021/12/14 03:06:24;;;;;;;0.20;0.10;;;8.50;99.90;;;;;;20912741;28;20567;-69
2021/12/14 03:16:30;;;;;;;0.20;0.00;;;8.50;99.90;;;;;;20972095;28;20611;-70
2021/12/14 03:26:39;;;;;;;0.20;0.00;;;8.50;99.90;;;;;;20991280;28;20255;-70
2021/12/14 03:36:48;;;;;;;0.20;0.10;;;8.50;99.90;;;;;;20991991;28;20196;-70
2021/12/14 03:46:58;;;;;;;0.57;0.57;;;8.40;99.90;;;;;;20990634;28;20704;-70
2021/12/14 03:57:02;;;;;;;0.20;0.10;;;8.30;99.90;;;;;;20990789;28;20203;-70
2021/12/14 04:07:10;;;;;;;0.20;0.10;;;8.30;99.90;;;;;;20884512;23;20659;-64
2021/12/14 04:17:15;;;;;;;0.20;0.10;;;8.30;99.90;;;;;;20909105;28;20317;-66
2021/12/14 04:27:25;;;;;;;0.20;0.10;;;8.40;99.90;;;;;;20902888;28;20225;-65
2021/12/14 04:37:29;;;;;;;0.20;0.10;;;8.30;99.90;;;;;;20919154;28;20212;-66
2021/12/14 04:57:55;;;;;;;0.20;0.10;;;8.10;99.90;;;;;;20917852;28;20208;-66
2021/12/14 05:18:27;;;;;;;0.20;0.00;;;8.20;99.90;;;;;;20817766;28;20202;-65
2021/12/14 05:28:33;;;;;;;8.57;3.80;;;8.10;99.90;;;;;;20832234;28;20218;-66
2021/12/14 05:38:46;;;;;;;0.20;0.10;;;8.00;99.90;;;;;;20832315;28;20201;-66
2021/12/14 05:48:57;;;;;;;0.20;0.10;;;7.90;99.90;;;;;;20830623;28;20228;-66
2021/12/14 05:59:04;;;;;;;0.20;0.10;;;8.00;99.90;;;;;;20811900;28;20685;-66
2021/12/14 06:09:12;;;;;;;0.20;0.10;;;8.00;99.90;;;;;;20833064;28;20236;-66
2021/12/14 06:19:19;;;;;;;0.20;0.10;;;8.00;99.90;;;;;;20910758;28;20280;-65
2021/12/14 06:29:27;;;;;;;0.20;0.10;;;8.00;99.90;;;;;;20908852;28;20229;-66
2021/12/14 06:39:31;;;;;;;0.20;0.10;;;8.00;99.90;;;;;;20908265;28;20276;-66
2021/12/14 06:49:36;;;;;;;0.20;0.10;;;8.00;99.90;;;;;;20906647;28;20233;-64
2021/12/14 06:59:40;;;;;;;0.20;0.00;;;7.90;99.90;;;;;;20905254;28;20233;-67
2021/12/14 07:09:47;;;;;;;0.20;0.10;;;8.10;99.90;;;;;;20890251;28;20266;-66
2021/12/14 07:19:54;;;;;;;1.13;0.87;;;8.10;99.90;;;;;;20819845;28;20198;-66
2021/12/14 07:30:15;;;;;;;1.90;1.67;;;8.10;99.90;;;;;;20820505;28;20316;-64
2021/12/14 07:40:19;;;;;;;0.20;0.10;;;8.10;99.90;;;;;;20831425;28;20723;-65
2021/12/14 07:50:38;;;;;;;0.20;0.10;;;8.20;99.90;;;;;;20819231;28;20214;-68
2021/12/14 08:00:42;;;;;;;0.20;0.00;;;8.50;99.90;;;;;;20836340;28;20317;-65
2021/12/14 08:10:58;;;;;;;0.20;0.10;;;8.50;99.90;;;;;;20802818;28;20214;-64
2021/12/14 08:21:05;;;;;;;0.20;0.10;;;8.80;99.90;;;;;;20750058;28;20243;-66
2021/12/14 08:31:14;;;;;;;0.20;0.10;;;9.10;99.90;;;;;;20750768;28;20218;-64
2021/12/14 08:41:25;;;;;;;0.20;0.10;;;9.50;99.90;;;;;;20748051;28;20274;-65
2021/12/14 08:51:35;;;;;;;0.20;0.10;;;9.90;99.90;;;;;;20730009;28;20683;-66
2021/12/14 09:01:40;;;;;;;0.20;0.10;;;10.40;99.90;;;;;;20747017;28;20222;-67
2021/12/14 09:11:49;;;;;;;0.20;0.10;;;10.80;99.90;;;;;;20748722;28;20265;-64
2021/12/14 09:21:58;;;;;;;0.83;0.83;;;11.30;99.90;;;;;;20744508;28;20209;-64
2021/12/14 09:32:08;;;;;;;0.20;0.10;;;11.70;99.90;;;;;;20748598;28;20246;-63
2021/12/14 09:42:16;;;;;;;0.20;0.10;;;12.10;99.90;;;;;;20741630;28;20558;-64
2021/12/14 09:52:24;;;;;;;0.20;0.10;;;12.30;99.90;;;;;;20716006;28;20215;-64
2021/12/14 10:02:32;;;;;;;0.20;0.10;;;12.80;99.90;;;;;;20734550;28;20317;-65
2021/12/14 10:12:49;;;;;;;0.20;0.10;;;13.20;99.90;;;;;;20841473;28;20239;-64
2021/12/14 10:22:53;;;;;;;0.20;0.10;;;13.60;99.90;;;;;;20892187;28;20202;-63
2021/12/14 10:33:00;;;;;;;11.93;11.13;;;14.30;99.90;;;;;;20891060;28;20259;-64
2021/12/14 10:43:15;;;;;;;0.20;0.00;;;15.60;99.90;;;;;;20862006;28;20198;-64
2021/12/14 10:53:21;;;;;;;0.20;0.10;;;16.00;99.90;;;;;;20805938;28;20234;-64
2021/12/14 11:03:30;;;;;;;0.50;0.50;;;16.20;99.90;;;;;;20805664;28;20226;-64
2021/12/14 11:13:43;;;;;;;0.20;0.00;;;16.70;99.90;;;;;;20847656;28;20756;-65
2021/12/14 11:23:51;;;;;;;0.20;0.20;;;17.10;99.90;;;;;;20889270;28;20258;-65
2021/12/14 11:33:59;;;;;;;0.20;0.10;;;17.40;99.90;;;;;;20899480;28;20662;-65
2021/12/14 11:44:10;;;;;;;0.20;0.10;;;17.00;99.90;;;;;;20868234;28;20293;-65
2021/12/14 11:54:19;;;;;;;0.20;0.00;;;17.50;99.90;;;;;;20800188;28;20698;-65
2021/12/14 12:04:34;;;;;;;0.20;0.10;;;18.20;99.90;;;;;;20798712;28;20240;-64
2021/12/14 12:14:43;;;;;;;0.20;0.10;;;18.00;99.90;;;;;;20853182;28;20232;-64
2021/12/14 12:24:49;;;;;;;0.20;0.10;;;18.30;99.90;;;;;;20894712;28;20225;-64
2021/12/14 12:34:54;;;;;;;0.20;0.10;;;18.60;99.90;;;;;;20900777;28;20225;-65
2021/12/14 12:44:57;;;;;;;0.20;0.00;;;18.80;99.90;;;;;;20816602;28;20935;-63
2021/12/14 12:55:10;;;;;;;0.20;0.10;;;18.80;99.90;;;;;;20819949;28;20726;-62
2021/12/14 13:05:25;;;;;;;0.20;0.10;;;18.50;99.90;;;;;;20819862;28;20332;-64
2021/12/14 13:15:47;;;;;;;0.30;0.30;;;18.60;99.90;;;;;;20874923;28;20232;-64
2021/12/14 13:25:51;;;;;;;1.37;1.37;;;18.60;99.90;;;;;;20819873;28;20555;-64
2021/12/14 13:35:56;;;;;;;0.20;0.10;;;18.20;99.90;;;;;;20802623;28;20265;-64
2021/12/14 13:46:05;;;;;;;0.20;0.00;;;18.50;99.90;;;;;;20804576;28;20198;-64
2021/12/14 13:56:15;;;;;;;0.20;0.00;;;18.90;99.90;;;;;;20813195;28;20253;-65
2021/12/14 14:06:22;;;;;;;0.20;0.00;;;19.20;99.90;;;;;;20813312;28;20240;-68
2021/12/14 14:16:38;;;;;;;0.20;0.00;;;19.50;99.90;;;;;;20810724;28;20575;-65
2021/12/14 14:26:43;;;;;;;0.20;0.10;;;19.90;99.90;;;;;;20813335;28;20194;-64
2021/12/14 14:36:57;;;;;;;0.20;0.10;;;20.20;99.90;;;;;;20822280;28;20240;-65
2021/12/14 14:47:26;;;;;;;2.03;1.90;;;18.50;99.90;;;;;;20821123;28;20202;-64
2021/12/14 14:57:48;;;;;;;0.40;0.40;;;17.20;99.90;;;;;;20819395;28;20257;-63
2021/12/14 15:08:02;;;;;;;0.20;0.10;;;17.30;99.90;;;;;;20817745;28;20229;-65
2021/12/14 15:18:07;;;;;;;0.20;0.10;;;17.70;99.90;;;;;;20911703;28;20621;-71
2021/12/14 15:28:18;;;;;;;0.20;0.07;;;17.60;99.90;;;;;;20901938;28;20196;-73
2021/12/14 15:38:36;;;;;;;0.20;0.20;;;17.50;99.90;;;;;;20857637;28;20198;-72
2021/12/14 15:48:45;;;;;;;0.20;0.10;;;16.90;99.90;;;;;;20817702;28;20249;-72
2021/12/14 15:59:00;;;;;;;0.20;0.10;;;15.40;99.90;;;;;;20824882;28;20194;-71
2021/12/14 16:09:16;;;;;;;0.20;0.10;;;14.10;99.90;;;;;;20815087;28;20572;-70
2021/12/14 16:19:30;;;;;;;0.20;0.03;;;13.50;99.90;;;;;;20829652;28;20283;-71
2021/12/14 16:29:36;;;;;;;0.20;0.10;;;13.00;99.90;;;;;;20830043;28;20210;-65
2021/12/14 16:39:44;;;;;;;0.20;0.00;;;12.70;99.90;;;;;;20830704;28;20198;-65
2021/12/14 16:49:51;;;;;;;0.20;0.10;;;12.20;99.90;;;;;;20831684;28;20228;-65
2021/12/14 17:00:01;;;;;;;0.20;0.00;;;11.90;99.90;;;;;;20803879;28;20208;-66
2021/12/14 17:10:08;;;;;;;0.20;0.10;;;11.50;99.90;;;;;;20827287;28;20733;-65
2021/12/14 17:20:15;;;;;;;0.20;0.10;;;11.20;99.90;;;;;;20896244;28;20220;-67
2021/12/14 17:30:22;;;;;;;0.20;0.10;;;10.70;99.90;;;;;;20894949;28;20647;-67
2021/12/14 17:40:30;;;;;;;0.20;0.00;;;10.60;99.90;;;;;;20832327;28;20675;-66
2021/12/14 17:50:37;;;;;;;0.20;0.10;;;10.30;99.90;;;;;;20827721;28;20249;-66
2021/12/14 18:00:46;;;;;;;0.70;0.70;;;10.20;99.90;;;;;;20829143;28;21125;-64
2021/12/14 18:10:54;;;;;;;0.20;0.10;;;10.10;99.90;;;;;;20827058;28;20761;-65
2021/12/14 18:21:01;;;;;;;0.20;0.10;;;9.90;99.90;;;;;;20908237;28;20211;-67
2021/12/14 18:31:07;;;;;;;0.20;0.10;;;9.90;99.90;;;;;;20908505;28;20252;-67
2021/12/14 18:41:12;;;;;;;0.20;0.10;;;9.70;99.90;;;;;;20824910;28;20232;-66
2021/12/14 18:51:16;;;;;;;0.20;0.10;;;9.60;99.90;;;;;;20825331;28;20280;-66
2021/12/14 19:01:26;;;;;;;0.20;0.10;;;9.70;99.90;;;;;;20836168;28;20675;-65
2021/12/14 19:11:33;;;;;;;0.20;0.10;;;9.70;99.90;;;;;;20825847;28;20298;-65
2021/12/14 19:21:43;;;;;;;0.20;0.00;;;9.50;99.90;;;;;;20884302;28;20683;-65
2021/12/14 19:31:49;;;;;;;4.63;3.07;;;9.40;99.90;;;;;;20901657;28;20236;-66
2021/12/14 19:42:01;;;;;;;0.20;0.10;;;9.10;99.90;;;;;;20844766;28;20267;-64
2021/12/14 19:52:07;;;;;;;15.40;13.80;;;9.10;99.90;;;;;;20829484;28;20225;-65
2021/12/14 20:02:20;;;;;;;0.20;0.10;;;9.10;99.90;;;;;;20846075;28;20261;-64
2021/12/14 20:12:29;;;;;;;0.20;0.00;;;9.00;99.90;;;;;;20845678;28;20228;-65
2021/12/14 20:22:41;;;;;;;0.83;0.83;;;9.10;99.90;;;;;;20845621;28;20205;-64
2021/12/14 20:32:48;;;;;;;0.20;0.10;;;9.10;99.90;;;;;;20842012;28;20304;-65
2021/12/14 20:43:03;;;;;;;1.20;1.03;;;9.10;99.90;;;;;;20841422;28;20650;-65
2021/12/14 20:53:10;;;;;;;0.20;0.00;;;9.00;99.90;;;;;;20831150;28;20230;-66
2021/12/14 21:03:25;;;;;;;0.20;0.10;;;8.90;99.90;;;;;;20830358;28;20644;-67
2021/12/14 21:13:31;;;;;;;0.20;0.10;;;8.80;99.90;;;;;;20831581;28;20573;-66
2021/12/14 21:23:37;;;;;;;0.20;0.10;;;9.00;99.90;;;;;;20831197;28;20212;-66
2021/12/14 21:33:46;;;;;;;0.20;0.10;;;9.00;99.90;;;;;;20826930;28;20234;-65
2021/12/14 21:44:04;;;;;;;0.20;0.10;;;8.90;99.90;;;;;;20828921;28;20260;-65
2021/12/14 21:54:08;;;;;;;0.20;0.00;;;8.70;99.90;;;;;;20824944;28;20313;-65
2021/12/14 22:04:13;;;;;;;0.20;0.10;;;8.50;99.90;;;;;;20777978;28;20260;-66
2021/12/14 22:14:18;;;;;;;0.20;0.10;;;8.40;99.90;;;;;;20824576;28;20576;-65
2021/12/14 22:24:23;;;;;;;0.20;0.03;;;9.00;99.90;;;;;;20826026;28;20393;-65
2021/12/14 22:34:27;;;;;;;4.43;2.07;;;8.80;99.90;;;;;;20803009;28;20265;-66
2021/12/14 22:44:35;;;;;;;0.20;0.10;;;8.30;99.90;;;;;;20825101;28;20240;-66
2021/12/14 22:54:43;;;;;;;0.20;0.10;;;7.90;99.90;;;;;;20824617;28;20226;-65
2021/12/14 23:04:48;;;;;;;0.20;0.10;;;7.80;99.90;;;;;;20822194;28;20229;-66
2021/12/14 23:14:55;;;;;;;0.20;0.00;;;7.90;99.90;;;;;;20825825;28;20230;-66
2021/12/14 23:25:01;;;;;;;0.20;0.10;;;7.80;99.90;;;;;;20826309;28;20208;-66
2021/12/14 23:35:06;;;;;;;0.20;0.10;;;7.90;99.90;;;;;;20824017;28;20257;-66
2021/12/14 23:45:17;;;;;;;1.00;0.90;;;8.20;99.90;;;;;;20825449;28;20221;-66
2021/12/14 23:55:21;;;;;;;0.20;0.10;;;8.00;99.90;;;;;;20824107;28;20248;-66
